createdAt,value
2018-04-15T00:00:00.678Z,69.59
2018-04-15T00:00:41.220Z,69.87
2018-04-15T00:01:21.747Z,69.49
2018-04-15T00:02:02.283Z,69.49
2018-04-15T00:02:42.722Z,69.49
2018-04-15T00:03:23.245Z,69.68
2018-04-15T00:04:03.737Z,70.17
2018-04-15T00:04:44.195Z,70.8
2018-04-15T00:05:24.745Z,70.8
2018-04-15T00:06:05.208Z,70.61
2018-04-15T00:06:46.032Z,70.32
2018-04-15T00:07:26.205Z,70.51
2018-04-15T00:08:06.722Z,70.9
2018-04-15T00:08:47.296Z,70.8
2018-04-15T00:09:27.742Z,70.93
2018-04-15T00:10:08.274Z,70.55
2018-04-15T00:10:48.769Z,71.03
2018-04-15T00:11:29.257Z,71.57
2018-04-15T00:12:09.742Z,71.47
2018-04-15T00:12:50.834Z,71.57
2018-04-15T00:13:30.780Z,71.66
2018-04-15T00:14:11.278Z,71.28
2018-04-15T00:14:51.738Z,71.76
2018-04-15T00:15:32.290Z,72.24
2018-04-15T00:16:12.800Z,72.33
2018-04-15T00:16:53.265Z,72.05
2018-04-15T00:17:33.834Z,72.81
2018-04-15T00:18:14.351Z,72.63
2018-04-15T00:18:54.833Z,73
2018-04-15T00:19:35.352Z,72.63
2018-04-15T00:20:15.882Z,72.81
2018-04-15T00:20:56.355Z,73
2018-04-15T00:21:36.826Z,72.72
2018-04-15T00:22:17.334Z,72.91
2018-04-15T00:22:57.814Z,73.1
2018-04-15T00:23:38.395Z,73
2018-04-15T00:24:18.867Z,72.81
2018-04-15T00:24:59.358Z,72.72
2018-04-15T00:25:39.868Z,72.81
2018-04-15T00:26:20.372Z,73
2018-04-15T00:27:00.908Z,73.3
2018-04-15T00:27:41.380Z,72.91
2018-04-15T00:28:21.836Z,73.39
2018-04-15T00:29:02.390Z,73.77
2018-04-15T00:29:42.824Z,73.49
2018-04-15T00:30:23.414Z,73.2
2018-04-15T00:31:03.920Z,73.1
2018-04-15T00:31:44.413Z,73.58
2018-04-15T00:32:24.932Z,73.3
2018-04-15T00:33:05.469Z,73.68
2018-04-15T00:33:45.925Z,73
2018-04-15T00:34:26.458Z,73.2
2018-04-15T00:35:06.917Z,73.1
2018-04-15T00:35:47.387Z,72.91
2018-04-15T00:36:27.940Z,73.3
2018-04-15T00:37:08.426Z,73.68
2018-04-15T00:37:48.883Z,72.91
2018-04-15T00:38:29.411Z,73.39
2018-04-15T00:39:09.894Z,73.1
2018-04-15T00:39:50.369Z,73.1
2018-04-15T00:40:30.977Z,73.49
2018-04-15T00:41:11.464Z,73.45
2018-04-15T00:41:52.068Z,74.02
2018-04-15T00:42:32.603Z,74.31
2018-04-15T00:43:13.075Z,74.26
2018-04-15T00:43:53.707Z,73.55
2018-04-15T00:44:34.365Z,74.06
2018-04-15T00:45:14.804Z,74.12
2018-04-15T00:45:55.315Z,74.12
2018-04-15T00:46:35.798Z,74.12
2018-04-15T00:47:16.237Z,74.02
2018-04-15T00:47:56.753Z,74.06
2018-04-15T00:48:37.248Z,74.35
2018-04-15T00:49:17.786Z,74.26
2018-04-15T00:49:58.215Z,74.44
2018-04-15T00:50:38.732Z,74.22
2018-04-15T00:51:19.189Z,74.22
2018-04-15T00:51:59.664Z,74.02
2018-04-15T00:52:40.146Z,74.79
2018-04-15T00:53:20.647Z,74.51
2018-04-15T00:54:01.131Z,74.51
2018-04-15T00:54:41.616Z,74.51
2018-04-15T00:55:22.150Z,74.51
2018-04-15T00:56:02.624Z,74.69
2018-04-15T00:56:43.109Z,74.51
2018-04-15T00:57:23.613Z,74.6
2018-04-15T00:58:04.097Z,74.64
2018-04-15T00:58:44.602Z,74.51
2018-04-15T00:59:25.038Z,74.79
2018-04-15T01:00:05.542Z,74.51
2018-04-15T01:00:46.064Z,74.31
2018-04-15T01:01:26.593Z,74.31
2018-04-15T01:02:07.091Z,74.51
2018-04-15T01:02:47.595Z,74.6
2018-04-15T01:03:28.102Z,74.6
2018-04-15T01:04:08.613Z,74.41
2018-04-15T01:04:49.117Z,74.6
2018-04-15T01:05:29.703Z,74.51
2018-04-15T01:06:10.099Z,74.41
2018-04-15T01:06:51.151Z,74.41
2018-04-15T01:07:31.143Z,74.6
2018-04-15T01:08:11.656Z,74.69
2018-04-15T01:08:52.166Z,75.37
2018-04-15T01:09:32.670Z,74.89
2018-04-15T01:10:13.136Z,74.79
2018-04-15T01:10:53.646Z,75.27
2018-04-15T01:11:34.218Z,75.18
2018-04-15T01:12:14.669Z,75.18
2018-04-15T01:12:55.151Z,75.27
2018-04-15T01:13:35.670Z,75.27
2018-04-15T01:14:16.141Z,74.6
2018-04-15T01:14:56.641Z,74.69
2018-04-15T01:15:37.159Z,74.69
2018-04-15T01:16:17.668Z,75.08
2018-04-15T01:16:58.209Z,74.02
2018-04-15T01:17:38.646Z,74.12
2018-04-15T01:18:19.157Z,74.12
2018-04-15T01:18:59.658Z,74.22
2018-04-15T01:19:40.168Z,73.74
2018-04-15T01:20:20.715Z,73.55
2018-04-15T01:21:01.147Z,73.45
2018-04-15T01:21:41.638Z,73.65
2018-04-15T01:22:22.113Z,73.74
2018-04-15T01:23:02.561Z,73.45
2018-04-15T01:23:43.079Z,74.02
2018-04-15T01:24:23.595Z,74.12
2018-04-15T01:25:04.072Z,74.12
2018-04-15T01:25:44.601Z,73.93
2018-04-15T01:26:25.145Z,73.93
2018-04-15T01:27:05.603Z,74.22
2018-04-15T01:27:46.144Z,74.69
2018-04-15T01:28:26.598Z,74.51
2018-04-15T01:29:07.078Z,74.51
2018-04-15T01:29:47.613Z,74.51
2018-04-15T01:30:28.090Z,74.51
2018-04-15T01:31:08.594Z,74.79
2018-04-15T01:31:49.085Z,74.41
2018-04-15T01:32:29.556Z,74.02
2018-04-15T01:33:10.075Z,74.22
2018-04-15T01:33:50.553Z,74.22
2018-04-15T01:34:31.095Z,73.74
2018-04-15T01:35:11.609Z,73.74
2018-04-15T01:35:52.103Z,73.55
2018-04-15T01:36:32.590Z,73.74
2018-04-15T01:37:13.126Z,74.18
2018-04-15T01:37:53.554Z,74.12
2018-04-15T01:38:34.115Z,74.41
2018-04-15T01:39:14.615Z,74.41
2018-04-15T01:39:55.067Z,74.51
2018-04-15T01:40:35.567Z,74.47
2018-04-15T01:41:16.050Z,75.04
2018-04-15T01:41:56.535Z,74.76
2018-04-15T01:42:37.036Z,74.85
2018-04-15T01:43:17.577Z,74.95
2018-04-15T01:43:58.040Z,74.95
2018-04-15T01:44:38.530Z,75.33
2018-04-15T01:45:19.180Z,74.85
2018-04-15T01:45:59.704Z,74.76
2018-04-15T01:46:40.196Z,75.33
2018-04-15T01:47:20.655Z,75.52
2018-04-15T01:48:01.214Z,75.43
2018-04-15T01:48:41.717Z,75.52
2018-04-15T01:49:22.187Z,75.62
2018-04-15T01:50:02.700Z,75.71
2018-04-15T01:50:43.159Z,75.81
2018-04-15T01:51:23.640Z,76
2018-04-15T01:52:04.148Z,76.19
2018-04-15T01:52:44.648Z,76.19
2018-04-15T01:53:25.142Z,76
2018-04-15T01:54:05.618Z,76.39
2018-04-15T01:54:46.135Z,75.81
2018-04-15T01:55:26.601Z,76
2018-04-15T01:56:07.127Z,76.39
2018-04-15T01:56:47.603Z,76
2018-04-15T01:57:28.142Z,76.29
2018-04-15T01:58:08.621Z,76
2018-04-15T01:58:49.114Z,76.1
2018-04-15T01:59:29.606Z,76.54
2018-04-15T02:00:10.140Z,76.77
2018-04-15T02:00:50.602Z,76.39
2018-04-15T02:01:31.131Z,76.57
2018-04-15T02:02:11.624Z,76.67
2018-04-15T02:02:52.142Z,76.67
2018-04-15T02:03:32.659Z,77.02
2018-04-15T02:04:13.142Z,77.06
2018-04-15T02:04:53.652Z,76.77
2018-04-15T02:05:34.142Z,76.77
2018-04-15T02:06:14.614Z,76.57
2018-04-15T02:06:55.071Z,77.11
2018-04-15T02:07:35.594Z,77.15
2018-04-15T02:08:16.242Z,77.06
2018-04-15T02:08:56.726Z,77.15
2018-04-15T02:09:37.193Z,77.15
2018-04-15T02:10:17.701Z,76.39
2018-04-15T02:10:58.193Z,76.77
2018-04-15T02:11:38.696Z,76.57
2018-04-15T02:12:19.218Z,76.39
2018-04-15T02:12:59.723Z,76.57
2018-04-15T02:13:40.190Z,75.9
2018-04-15T02:14:20.729Z,76.39
2018-04-15T02:15:01.134Z,76.48
2018-04-15T02:15:41.646Z,75.9
2018-04-15T02:16:22.147Z,76.67
2018-04-15T02:17:02.642Z,76.57
2018-04-15T02:17:43.122Z,76.19
2018-04-15T02:18:23.585Z,76
2018-04-15T02:19:04.053Z,76.29
2018-04-15T02:19:44.550Z,76
2018-04-15T02:20:25.082Z,76
2018-04-15T02:21:05.587Z,76.29
2018-04-15T02:21:46.044Z,76.39
2018-04-15T02:22:26.531Z,76.19
2018-04-15T02:23:07.072Z,76.19
2018-04-15T02:23:47.525Z,75.52
2018-04-15T02:24:28.026Z,75.9
2018-04-15T02:25:08.793Z,75.62
2018-04-15T02:25:49.312Z,75.52
2018-04-15T02:26:29.786Z,75.81
2018-04-15T02:27:10.278Z,75.9
2018-04-15T02:27:50.740Z,75.62
2018-04-15T02:28:31.247Z,75.81
2018-04-15T02:29:11.719Z,75.81
2018-04-15T02:29:52.241Z,75.9
2018-04-15T02:30:32.694Z,75.81
2018-04-15T02:31:13.204Z,75.81
2018-04-15T02:31:53.683Z,75.33
2018-04-15T02:32:34.174Z,75.33
2018-04-15T02:33:14.665Z,75.62
2018-04-15T02:33:55.183Z,75.62
2018-04-15T02:34:35.623Z,75.81
2018-04-15T02:35:16.134Z,75.33
2018-04-15T02:35:56.621Z,75.23
2018-04-15T02:36:37.121Z,75.33
2018-04-15T02:37:17.592Z,74.85
2018-04-15T02:37:58.112Z,74.76
2018-04-15T02:38:38.571Z,74.95
2018-04-15T02:39:19.055Z,75.23
2018-04-15T02:39:59.549Z,74.95
2018-04-15T02:40:40.047Z,74.85
2018-04-15T02:41:20.557Z,74.76
2018-04-15T02:42:01.045Z,74.95
2018-04-15T02:42:41.522Z,75.04
2018-04-15T02:43:22.021Z,75.27
2018-04-15T02:44:02.520Z,75.27
2018-04-15T02:44:43.011Z,74.89
2018-04-15T02:45:23.493Z,74.66
2018-04-15T02:46:03.983Z,74.89
2018-04-15T02:46:44.457Z,74.76
2018-04-15T02:47:24.927Z,74.85
2018-04-15T02:48:05.419Z,75.23
2018-04-15T02:48:45.942Z,75.14
2018-04-15T02:49:26.468Z,75.33
2018-04-15T02:50:06.952Z,75.14
2018-04-15T02:50:47.486Z,75.33
2018-04-15T02:51:27.961Z,75.18
2018-04-15T02:52:08.448Z,74.85
2018-04-15T02:52:48.991Z,75.04
2018-04-15T02:53:29.531Z,74.76
2018-04-15T02:54:09.988Z,75.37
2018-04-15T02:54:50.440Z,75.37
2018-04-15T02:55:30.997Z,75.18
2018-04-15T02:56:11.438Z,75.08
2018-04-15T02:56:52.002Z,75.27
2018-04-15T02:57:32.507Z,75.27
2018-04-15T02:58:12.995Z,75.18
2018-04-15T02:58:53.494Z,75.18
2018-04-15T02:59:33.992Z,74.89
2018-04-15T03:00:14.465Z,75.18
2018-04-15T03:00:54.956Z,74.79
2018-04-15T03:01:35.439Z,75.37
2018-04-15T03:02:15.907Z,75.56
2018-04-15T03:02:56.457Z,76.04
2018-04-15T03:03:36.943Z,75.08
2018-04-15T03:04:17.399Z,75.56
2018-04-15T03:04:57.951Z,75.95
2018-04-15T03:05:38.403Z,75.95
2018-04-15T03:06:18.916Z,75.81
2018-04-15T03:06:59.389Z,76.29
2018-04-15T03:07:39.853Z,76.32
2018-04-15T03:08:20.355Z,76.19
2018-04-15T03:09:00.927Z,76.14
2018-04-15T03:09:41.391Z,76.23
2018-04-15T03:10:21.885Z,76
2018-04-15T03:11:02.383Z,76.42
2018-04-15T03:11:42.901Z,76.14
2018-04-15T03:12:23.406Z,76.14
2018-04-15T03:13:03.884Z,76.9
2018-04-15T03:13:44.360Z,77
2018-04-15T03:14:24.840Z,76.81
2018-04-15T03:15:05.375Z,76.42
2018-04-15T03:15:45.869Z,76.42
2018-04-15T03:16:26.375Z,76.9
2018-04-15T03:17:06.845Z,77.34
2018-04-15T03:17:47.327Z,76.77
2018-04-15T03:18:27.803Z,77.15
2018-04-15T03:19:08.319Z,77.73
2018-04-15T03:19:48.800Z,77.82
2018-04-15T03:20:29.278Z,78.02
2018-04-15T03:21:09.739Z,78.11
2018-04-15T03:21:50.281Z,78.11
2018-04-15T03:22:30.761Z,78.11
2018-04-15T03:23:11.260Z,78.3
2018-04-15T03:23:51.759Z,78.59
2018-04-15T03:24:32.254Z,78.3
2018-04-15T03:25:12.755Z,78.4
2018-04-15T03:25:53.225Z,78.4
2018-04-15T03:26:33.698Z,78.59
2018-04-15T03:27:14.243Z,78.2
2018-04-15T03:27:54.742Z,78.11
2018-04-15T03:28:35.222Z,78.2
2018-04-15T03:29:15.662Z,78.4
2018-04-15T03:29:56.259Z,78.2
2018-04-15T03:30:36.655Z,78.11
2018-04-15T03:31:17.291Z,78.3
2018-04-15T03:31:57.789Z,78.4
2018-04-15T03:32:38.265Z,78.78
2018-04-15T03:33:18.737Z,79.07
2018-04-15T03:33:59.219Z,78.97
2018-04-15T03:34:39.687Z,78.59
2018-04-15T03:35:20.200Z,78.88
2018-04-15T03:36:00.653Z,78.69
2018-04-15T03:36:41.213Z,78.78
2018-04-15T03:37:21.644Z,78.88
2018-04-15T03:38:02.158Z,78.88
2018-04-15T03:38:42.646Z,78.78
2018-04-15T03:39:23.150Z,78.11
2018-04-15T03:40:03.603Z,78.59
2018-04-15T03:40:44.095Z,78.4
2018-04-15T03:41:24.561Z,78.4
2018-04-15T03:42:05.051Z,78.3
2018-04-15T03:42:45.583Z,78.78
2018-04-15T03:43:26.018Z,78.49
2018-04-15T03:44:06.495Z,78.59
2018-04-15T03:44:46.988Z,78.59
2018-04-15T03:45:27.517Z,78.88
2018-04-15T03:46:07.963Z,78.69
2018-04-15T03:46:48.435Z,78.88
2018-04-15T03:47:28.957Z,78.88
2018-04-15T03:48:09.410Z,78.3
2018-04-15T03:48:49.920Z,78.2
2018-04-15T03:49:30.406Z,78.49
2018-04-15T03:50:10.928Z,78.59
2018-04-15T03:50:51.400Z,78.49
2018-04-15T03:51:31.860Z,78.88
2018-04-15T03:52:12.350Z,78.69
2018-04-15T03:52:52.850Z,78.59
2018-04-15T03:53:33.359Z,78.78
2018-04-15T03:54:13.841Z,79.45
2018-04-15T03:54:54.295Z,79.07
2018-04-15T03:55:34.782Z,79.07
2018-04-15T03:56:15.244Z,79.26
2018-04-15T03:56:55.727Z,79.16
2018-04-15T03:57:36.244Z,79.45
2018-04-15T03:58:16.681Z,79.36
2018-04-15T03:58:57.491Z,79.64
2018-04-15T03:59:38.000Z,79.36
2018-04-15T04:00:18.452Z,80.32
2018-04-15T04:00:58.969Z,79.26
2018-04-15T04:01:39.450Z,79.93
2018-04-15T04:02:19.901Z,80.12
2018-04-15T04:03:00.449Z,80.22
2018-04-15T04:03:40.911Z,80.7
2018-04-15T04:04:21.386Z,80.6
2018-04-15T04:05:01.899Z,80.22
2018-04-15T04:05:42.436Z,79.26
2018-04-15T04:06:22.910Z,79.55
2018-04-15T04:07:03.364Z,80.32
2018-04-15T04:07:43.893Z,80.12
2018-04-15T04:08:24.397Z,80.7
2018-04-15T04:09:04.896Z,80.51
2018-04-15T04:09:45.387Z,80.6
2018-04-15T04:10:25.898Z,80.41
2018-04-15T04:11:06.356Z,80.6
2018-04-15T04:11:46.846Z,80.89
2018-04-15T04:12:27.344Z,80.7
2018-04-15T04:13:07.835Z,80.99
2018-04-15T04:13:48.339Z,81.56
2018-04-15T04:14:28.781Z,81.71
2018-04-15T04:15:09.286Z,81.13
2018-04-15T04:15:49.749Z,81.62
2018-04-15T04:16:30.266Z,81.9
2018-04-15T04:17:10.772Z,81.62
2018-04-15T04:17:51.287Z,81.43
2018-04-15T04:18:31.819Z,81.46
2018-04-15T04:19:12.378Z,81.18
2018-04-15T04:19:52.866Z,81.27
2018-04-15T04:20:33.380Z,81.66
2018-04-15T04:21:13.889Z,81.75
2018-04-15T04:21:54.424Z,81.37
2018-04-15T04:22:34.946Z,81.66
2018-04-15T04:23:15.471Z,81.18
2018-04-15T04:23:55.967Z,81.18
2018-04-15T04:24:36.485Z,81.27
2018-04-15T04:25:17.001Z,81.27
2018-04-15T04:25:57.521Z,81.37
2018-04-15T04:26:38.039Z,80.6
2018-04-15T04:27:18.569Z,80.51
2018-04-15T04:27:59.102Z,80.6
2018-04-15T04:28:39.631Z,80.51
2018-04-15T04:29:20.148Z,80.6
2018-04-15T04:30:00.676Z,80.79
2018-04-15T04:30:41.183Z,81.27
2018-04-15T04:31:21.704Z,80.99
2018-04-15T04:32:02.220Z,81.18
2018-04-15T04:32:42.735Z,81.46
2018-04-15T04:33:23.246Z,81.37
2018-04-15T04:34:03.775Z,81.66
2018-04-15T04:34:44.282Z,81.56
2018-04-15T04:35:24.797Z,81.08
2018-04-15T04:36:05.321Z,80.89
2018-04-15T04:36:45.842Z,81.18
2018-04-15T04:37:26.368Z,80.41
2018-04-15T04:38:06.886Z,80.89
2018-04-15T04:38:47.421Z,81.18
2018-04-15T04:39:27.944Z,80.6
2018-04-15T04:40:08.468Z,80.6
2018-04-15T04:40:48.976Z,81.02
2018-04-15T04:41:29.486Z,80.6
2018-04-15T04:42:10.034Z,80.41
2018-04-15T04:42:50.556Z,80.32
2018-04-15T04:43:31.072Z,80.32
2018-04-15T04:44:11.597Z,80.41
2018-04-15T04:44:52.120Z,80.41
2018-04-15T04:45:32.640Z,80.32
2018-04-15T04:46:13.181Z,80.89
2018-04-15T04:46:53.694Z,80.99
2018-04-15T04:47:34.218Z,80.89
2018-04-15T04:48:14.721Z,80.6
2018-04-15T04:48:55.239Z,80.89
2018-04-15T04:49:36.332Z,80.7
2018-04-15T04:50:16.849Z,80.89
2018-04-15T04:50:57.395Z,80.41
2018-04-15T04:51:37.906Z,80.6
2018-04-15T04:52:18.423Z,81.66
2018-04-15T04:52:58.946Z,80.6
2018-04-15T04:53:39.453Z,80.79
2018-04-15T04:54:19.971Z,80.99
2018-04-15T04:55:00.471Z,81.46
2018-04-15T04:55:40.994Z,81.66
2018-04-15T04:56:21.552Z,81.27
2018-04-15T04:57:02.051Z,80.99
2018-04-15T04:57:42.568Z,81.18
2018-04-15T04:58:23.079Z,80.89
2018-04-15T04:59:03.604Z,80.6
2018-04-15T04:59:44.123Z,80.89
2018-04-15T05:00:24.651Z,80.41
2018-04-15T05:01:05.164Z,80.32
2018-04-15T05:01:45.691Z,80.32
2018-04-15T05:02:26.175Z,80.7
2018-04-15T05:03:06.687Z,80.35
2018-04-15T05:03:47.158Z,80.64
2018-04-15T05:04:27.729Z,80.64
2018-04-15T05:05:08.198Z,80.7
2018-04-15T05:05:48.694Z,80.6
2018-04-15T05:06:29.197Z,80.6
2018-04-15T05:07:09.675Z,80.64
2018-04-15T05:07:50.261Z,80.32
2018-04-15T05:08:30.750Z,80.6
2018-04-15T05:09:11.218Z,80.64
2018-04-15T05:09:51.696Z,80.35
2018-04-15T05:10:32.253Z,80.6
2018-04-15T05:11:12.708Z,80.93
2018-04-15T05:11:53.240Z,80.45
2018-04-15T05:12:33.668Z,80.35
2018-04-15T05:13:14.138Z,80.74
2018-04-15T05:13:54.683Z,80.64
2018-04-15T05:14:35.147Z,80.7
2018-04-15T05:15:15.664Z,80.99
2018-04-15T05:15:56.200Z,81.08
2018-04-15T05:16:36.640Z,81.22
2018-04-15T05:17:17.136Z,80.32
2018-04-15T05:17:57.663Z,80.74
2018-04-15T05:18:38.144Z,80.64
2018-04-15T05:19:18.632Z,80.35
2018-04-15T05:19:59.119Z,80.64
2018-04-15T05:20:39.588Z,80.45
2018-04-15T05:21:20.092Z,80.35
2018-04-15T05:22:00.555Z,80.55
2018-04-15T05:22:41.031Z,80.45
2018-04-15T05:23:21.493Z,80.55
2018-04-15T05:24:02.042Z,80.64
2018-04-15T05:24:42.542Z,80.55
2018-04-15T05:25:23.076Z,80.55
2018-04-15T05:26:03.587Z,81.12
2018-04-15T05:26:44.079Z,80.64
2018-04-15T05:27:24.576Z,80.64
2018-04-15T05:28:05.086Z,81.22
2018-04-15T05:28:45.552Z,80.93
2018-04-15T05:29:26.054Z,80.74
2018-04-15T05:30:06.555Z,80.45
2018-04-15T05:30:47.072Z,80.64
2018-04-15T05:31:27.603Z,81.22
2018-04-15T05:32:08.095Z,81.22
2018-04-15T05:32:48.556Z,81.12
2018-04-15T05:33:29.031Z,80.74
2018-04-15T05:34:09.515Z,80.64
2018-04-15T05:34:50.041Z,80.55
2018-04-15T05:35:30.577Z,80.64
2018-04-15T05:36:11.097Z,80.35
2018-04-15T05:36:51.817Z,80.35
2018-04-15T05:37:32.252Z,80.64
2018-04-15T05:38:12.809Z,80.35
2018-04-15T05:38:53.606Z,80.55
2018-04-15T05:39:34.025Z,81.22
2018-04-15T05:40:14.529Z,81.12
2018-04-15T05:40:55.035Z,80.26
2018-04-15T05:41:35.596Z,81.22
2018-04-15T05:42:16.151Z,80.83
2018-04-15T05:42:56.603Z,81.12
2018-04-15T05:43:37.130Z,80.93
2018-04-15T05:44:17.625Z,81.41
2018-04-15T05:44:58.273Z,80.79
2018-04-15T05:45:39.089Z,80.74
2018-04-15T05:46:19.648Z,80.93
2018-04-15T05:47:00.606Z,81.41
2018-04-15T05:47:41.109Z,80.64
2018-04-15T05:48:21.564Z,81.31
2018-04-15T05:49:02.098Z,80.83
2018-04-15T05:49:42.562Z,80.74
2018-04-15T05:50:23.008Z,80.68
2018-04-15T05:51:03.493Z,79.72
2018-04-15T05:51:44.339Z,80.11
2018-04-15T05:52:25.212Z,79.63
2018-04-15T05:53:05.713Z,79.44
2018-04-15T05:53:46.232Z,79.53
2018-04-15T05:54:26.792Z,79.14
2018-04-15T05:55:07.332Z,79.34
2018-04-15T05:55:47.828Z,78.77
2018-04-15T05:56:28.301Z,78.67
2018-04-15T05:57:08.780Z,78.57
2018-04-15T05:57:49.300Z,78.96
2018-04-15T05:58:29.802Z,78.57
2018-04-15T05:59:10.275Z,78.42
2018-04-15T05:59:50.835Z,78.32
2018-04-15T06:00:31.263Z,78.03
2018-04-15T06:01:11.780Z,78.38
2018-04-15T06:01:52.306Z,78.86
2018-04-15T06:02:32.824Z,78.28
2018-04-15T06:03:13.587Z,78.28
2018-04-15T06:03:54.110Z,78.03
2018-04-15T06:04:34.637Z,77.94
2018-04-15T06:05:15.171Z,78.23
2018-04-15T06:05:55.711Z,77.75
2018-04-15T06:06:36.211Z,77.36
2018-04-15T06:07:16.734Z,77.17
2018-04-15T06:07:57.247Z,77.26
2018-04-15T06:08:37.759Z,77.26
2018-04-15T06:09:18.265Z,77.56
2018-04-15T06:09:58.799Z,77.17
2018-04-15T06:10:39.321Z,76.88
2018-04-15T06:11:19.829Z,76.82
2018-04-15T06:12:00.344Z,76.69
2018-04-15T06:12:40.861Z,76.4
2018-04-15T06:13:21.378Z,76.73
2018-04-15T06:14:02.270Z,75.96
2018-04-15T06:14:42.817Z,76.15
2018-04-15T06:15:23.405Z,76.25
2018-04-15T06:16:03.916Z,76.25
2018-04-15T06:16:44.429Z,76.54
2018-04-15T06:17:24.941Z,76.44
2018-04-15T06:18:05.463Z,76.15
2018-04-15T06:18:45.978Z,76.25
2018-04-15T06:19:26.507Z,75.87
2018-04-15T06:20:07.040Z,75.96
2018-04-15T06:20:47.568Z,75.96
2018-04-15T06:21:28.071Z,75.38
2018-04-15T06:22:08.582Z,75.29
2018-04-15T06:22:49.113Z,75.13
2018-04-15T06:23:29.629Z,75.13
2018-04-15T06:24:10.145Z,75.42
2018-04-15T06:24:50.679Z,75.42
2018-04-15T06:25:31.185Z,75.32
2018-04-15T06:26:11.700Z,75.71
2018-04-15T06:26:52.208Z,76
2018-04-15T06:27:33.121Z,75.42
2018-04-15T06:28:13.686Z,75.13
2018-04-15T06:28:54.221Z,75.23
2018-04-15T06:29:34.737Z,75.04
2018-04-15T06:30:15.267Z,75.23
2018-04-15T06:30:55.792Z,74.65
2018-04-15T06:31:36.327Z,74.98
2018-04-15T06:32:16.886Z,74.27
2018-04-15T06:32:57.343Z,74.17
2018-04-15T06:33:37.868Z,74.37
2018-04-15T06:34:18.373Z,73.54
2018-04-15T06:34:59.084Z,73.73
2018-04-15T06:36:57.276Z,73.73
2018-04-15T06:37:37.812Z,73.73
2018-04-15T06:38:18.328Z,73.44
2018-04-15T06:38:59.116Z,73.44
2018-04-15T06:39:39.656Z,73.25
2018-04-15T06:40:20.168Z,73.06
2018-04-15T06:41:00.684Z,72.96
2018-04-15T06:41:41.210Z,73
2018-04-15T06:42:21.746Z,72.42
2018-04-15T06:43:02.244Z,72.03
2018-04-15T06:43:42.778Z,71.36
2018-04-15T06:44:23.290Z,71.75
2018-04-15T06:45:03.836Z,71.26
2018-04-15T06:45:44.346Z,71.84
2018-04-15T06:46:24.869Z,71.26
2018-04-15T06:47:05.377Z,71.01
2018-04-15T06:47:45.900Z,71.2
2018-04-15T06:48:26.413Z,71.49
2018-04-15T06:49:06.920Z,71.49
2018-04-15T06:49:47.440Z,71.59
2018-04-15T06:50:27.956Z,71.11
2018-04-15T06:51:08.528Z,71.11
2018-04-15T06:51:49.036Z,71.01
2018-04-15T06:52:29.555Z,71.3
2018-04-15T06:53:10.070Z,70.92
2018-04-15T06:53:50.582Z,70.72
2018-04-15T06:54:31.111Z,70.68
2018-04-15T06:55:11.625Z,69.92
2018-04-15T06:55:52.149Z,70.11
2018-04-15T06:56:32.685Z,69.53
2018-04-15T06:57:13.197Z,70.5
2018-04-15T06:57:53.723Z,70.59
2018-04-15T06:58:34.262Z,70.21
2018-04-15T06:59:14.774Z,70.78
2018-04-15T06:59:55.289Z,70.88
2018-04-15T07:00:35.826Z,70.21
2018-04-15T07:01:16.344Z,71.08
2018-04-15T07:01:56.853Z,70.88
2018-04-15T07:02:37.369Z,70.68
2018-04-15T07:03:17.878Z,70.72
2018-04-15T07:03:58.389Z,70.72
2018-04-15T07:04:38.916Z,70.24
2018-04-15T07:06:38.919Z,69.76
2018-04-15T07:07:19.659Z,69.76
2018-04-15T07:08:00.200Z,68.99
2018-04-15T07:08:40.722Z,68.32
2018-04-15T07:09:21.256Z,68.7
2018-04-15T07:10:01.796Z,68.7
2018-04-15T07:10:42.318Z,68.7
2018-04-15T07:11:22.830Z,68.13
2018-04-15T07:12:03.372Z,68.32
2018-04-15T07:12:43.915Z,68.44
2018-04-15T07:13:25.195Z,67.77
2018-04-15T07:14:05.722Z,68.44
2018-04-15T07:14:46.236Z,67.68
2018-04-15T07:15:26.782Z,68.44
2018-04-15T07:16:07.289Z,68.35
2018-04-15T07:16:47.805Z,68.13
2018-04-15T07:17:28.311Z,67.97
2018-04-15T07:18:08.832Z,68.51
2018-04-15T07:18:49.352Z,68.22
2018-04-15T07:19:29.899Z,68.32
2018-04-15T07:21:23.054Z,68.32
2018-04-15T07:22:03.592Z,68.51
2018-04-15T07:22:44.084Z,68.41
2018-04-15T07:23:24.803Z,68.51
2018-04-15T07:24:05.332Z,68.8
2018-04-15T07:24:45.828Z,68.8
2018-04-15T07:25:26.365Z,68.99
2018-04-15T07:26:06.870Z,69.09
2018-04-15T07:26:47.400Z,69.38
2018-04-15T07:27:27.943Z,69.57
2018-04-15T07:28:08.442Z,69.57
2018-04-15T07:28:48.952Z,69.44
2018-04-15T07:29:29.485Z,69.44
2018-04-15T07:30:09.968Z,69.92
2018-04-15T07:30:50.494Z,69.73
2018-04-15T07:31:31.020Z,70.05
2018-04-15T07:32:11.553Z,70.15
2018-04-15T07:32:52.079Z,70.21
2018-04-15T07:33:32.712Z,70.5
2018-04-15T07:34:13.226Z,70.59
2018-04-15T07:34:53.774Z,70.59
2018-04-15T07:35:34.276Z,70.3
2018-04-15T07:36:14.798Z,69.63
2018-04-15T07:36:55.356Z,69.34
2018-04-15T07:37:35.880Z,69.73
2018-04-15T07:38:16.484Z,69.53
2018-04-15T07:38:57.005Z,69.82
2018-04-15T07:39:37.554Z,69.63
2018-04-15T07:40:18.061Z,69.57
2018-04-15T07:40:58.600Z,69.47
2018-04-15T07:41:39.128Z,68.7
2018-04-15T07:42:19.643Z,68.32
2018-04-15T07:43:00.183Z,68.7
2018-04-15T07:43:40.717Z,68.51
2018-04-15T07:44:21.237Z,68.51
2018-04-15T07:45:01.759Z,68.8
2018-04-15T07:45:42.270Z,68.22
2018-04-15T07:46:22.820Z,68.03
2018-04-15T07:47:03.349Z,67.93
2018-04-15T07:47:43.863Z,68.16
2018-04-15T07:48:24.404Z,67.68
2018-04-15T07:49:05.092Z,67.1
2018-04-15T07:49:45.661Z,66.94
2018-04-15T07:50:26.109Z,66.52
2018-04-15T07:51:06.612Z,67.1
2018-04-15T07:51:47.109Z,66.36
2018-04-15T07:52:27.611Z,65.98
2018-04-15T07:53:08.095Z,66.65
2018-04-15T07:53:48.683Z,66.75
2018-04-15T07:54:29.210Z,66.46
2018-04-15T07:55:09.687Z,65.78
2018-04-15T07:55:50.193Z,65.4
2018-04-15T07:56:32.187Z,65.59
2018-04-15T07:57:13.889Z,65.88
2018-04-15T07:57:57.794Z,65.59
2018-04-15T07:58:38.646Z,65.69
2018-04-15T07:59:19.377Z,66.36
2018-04-15T07:59:59.963Z,66.27
2018-04-15T08:00:40.479Z,66.27
2018-04-15T08:01:20.940Z,65.69
2018-04-15T08:02:02.296Z,65.78
2018-04-15T08:02:43.498Z,65.5
2018-04-15T08:03:23.984Z,65.5
2018-04-15T08:04:04.998Z,65.5
2018-04-15T08:04:45.502Z,65.5
2018-04-15T08:05:26.010Z,65.78
2018-04-15T08:06:06.528Z,66.46
2018-04-15T08:06:48.014Z,65.69
2018-04-15T08:07:28.442Z,65.4
2018-04-15T08:08:08.954Z,65.88
2018-04-15T08:08:49.456Z,65.4
2018-04-15T08:09:30.110Z,65.78
2018-04-15T08:10:10.445Z,65.69
2018-04-15T08:10:50.952Z,65.98
2018-04-15T08:11:31.538Z,65.11
2018-04-15T08:12:13.483Z,65.4
2018-04-15T08:12:54.023Z,64.53
2018-04-15T08:13:34.530Z,64.82
2018-04-15T08:14:14.997Z,64.63
2018-04-15T08:14:56.365Z,65.4
2018-04-15T08:15:36.849Z,65.2
2018-04-15T08:16:17.408Z,64.63
2018-04-15T08:16:57.951Z,65.2
2018-04-15T08:17:38.520Z,65.2
2018-04-15T08:18:19.046Z,65.05
2018-04-15T08:18:59.538Z,64.82
2018-04-15T08:19:40.098Z,65.11
2018-04-15T08:20:20.714Z,65.3
2018-04-15T08:21:01.250Z,65.01
2018-04-15T08:21:41.765Z,65.11
2018-04-15T08:22:22.347Z,65.11
2018-04-15T08:23:03.404Z,64.63
2018-04-15T08:23:43.889Z,65.11
2018-04-15T08:24:24.370Z,64.53
2018-04-15T08:25:04.916Z,64.53
2018-04-15T08:25:45.387Z,64.53
2018-04-15T08:26:25.867Z,65.24
2018-04-15T08:27:06.404Z,64.63
2018-04-15T08:27:46.893Z,64.73
2018-04-15T08:28:27.574Z,65.3
2018-04-15T08:29:08.097Z,64.86
2018-04-15T08:29:48.619Z,64.82
2018-04-15T08:30:29.090Z,65.11
2018-04-15T08:31:09.735Z,64.63
2018-04-15T08:31:50.708Z,65.11
2018-04-15T08:32:31.218Z,65.3
2018-04-15T08:33:13.301Z,64.43
2018-04-15T08:33:53.789Z,64.92
2018-04-15T08:34:34.300Z,64.34
2018-04-15T08:35:14.800Z,64.15
2018-04-15T08:35:55.293Z,64.43
2018-04-15T08:36:35.803Z,64.18
2018-04-15T08:37:16.255Z,64.25
2018-04-15T08:37:57.285Z,64.43
2018-04-15T08:38:38.756Z,64.15
2018-04-15T08:39:20.220Z,64.76
2018-04-15T08:40:01.700Z,64.43
2018-04-15T08:40:43.081Z,64.34
2018-04-15T08:41:24.583Z,64.25
2018-04-15T08:42:06.174Z,65.4
2018-04-15T08:42:47.709Z,65.5
2018-04-15T08:43:29.244Z,65.2
2018-04-15T08:44:10.713Z,65.2
2018-04-15T08:44:52.273Z,65.01
2018-04-15T08:45:33.369Z,65.2
2018-04-15T08:46:13.882Z,65.2
2018-04-15T08:46:54.409Z,65.4
2018-04-15T08:47:34.928Z,64.82
2018-04-15T08:48:15.491Z,64.47
2018-04-15T08:48:56.015Z,64.86